Česky Dansk Deutsch English Español Suomi Français Magyar Italiano Nederlands norsk Polski Português svenska Türkçe

 

Het Weer

Kars (Turkije)

05:50, 31 juli 2016 (GMT)

NWNNE
WE
SWSSE
Home            
Kars Yerevan Erzurum Muhrani Tbilisi Mus Tur-Afb Van Khoy Gyanca Airport Trabzon Erzincan Nalchik Batman Orumieh Diyarbakir Tabriz Elazig Mineral'Nye Vody Adler Kamishli Maragheh / Sahand Mosul Malatya / Erhac

Om een weerknop op uw website of weblog te plaatsen, copieer onderstaande code en plak die in uw pagina. In het eerste vakje staat HTML-code, in het tweede vakje UBB-code.


Add to Google

Details

Wind speed:1 bf, 2 kn, 1.0 m/s, 2.3 miles/h, 3.7 km/h
Wind direction:Variable
Visibility:Greater than 10000 m, 10 km, 32800 ft, 6.2 miles
Clouds:Ein wenig bewölkt at 4000 ft, 1219 m
Temperature:15°C, 59°F
Dew-point:13°C, 55°F
Atmospheric pressure:1020 hPa, 765.1 mmHg, 30.12 inHg, 1.007 atm
Relative humidity:87.8 %
METAR:LTCF 310550Z VRB02KT 9999 FEW040 15/13 Q1020

Snelkoppelingen

Actuele weersinformatie van de hele wereld. Voeg locaties toe met het plus (+) symbool. Deze snelkoppelingen kunnen worden toegevoegd aan Google.

Lid van de Technetium groep

website free tracking
StatCounter NetStat W3C Validator

08-08-2022 04:14:44
astro.technetium.be money.technetium.be phote.technetium.be tafeltennistafel.technetium.be www.ligfiets.net